BIAR

Akureyri Airport

Akureyri, Iceland

BIAR 112200Z 18006KT CAVOK M10/M12 Q0996

Observed Flight Rules
Dec-11 @ 22:00 UTC (41 minutes ago) Visual Flight Rules
Wind Visibility Clouds
180° at 6 knots 10,000+ meters
  • Clear skies
Temperatures Readings
Current -10°C / 14°F
Dewpoint -12°C / 10°F
Humidity 85%
Altimeter 29.41" Hg
Pressure 996 hPa
Elevation 27
Observed Flight Rules
Dec-11 @ 22:00 UTC
(41 minutes ago)
VFR
Wind Visibility
180° at 6 knots 10,000+ meters
Clouds
  • Clear skies
Temperature Dewpoint
-10°C / 14°F -12°C / 10°F
Humidity Altimeter Pressure
85% 29.41" Hg 996 hPa